METAR AND TAF INFORMATION
METAR FOR LTAC
LTAC 211620Z 09012KT CAVOK 29/09 Q1014 NOSIG RMK RWY21L 08012KT RWY03L 09012KT RWY21R 07014KT
LTAC 211550Z 10013KT CAVOK 30/09 Q1014 NOSIG RMK RWY21L 08011KT 050V110 RWY03L 09010KT RWY21R 07012KT
LTAC 211520Z 09011KT 050V120 CAVOK 30/09 Q1014 NOSIG RMK RWY21L 06011KT 010V110 RWY03L 07009KT 030V110 RWY21R 04009KT 360V080
LTAC 211450Z 08010KT 030V130 CAVOK 31/09 Q1014 NOSIG RMK RWY21L 06011KT 020V100 RWY03L 07011KT RWY21R 05013KT 020V100
LTAC 211420Z 06011KT 030V090 CAVOK 31/09 Q1014 NOSIG RMK RWY21L 05009KT 010V080 RWY03L 05011KT 010V070 RWY21R 04011KT 010V080
LTAC 211350Z 06011KT 030V090 CAVOK 30/09 Q1014 NOSIG RMK RWY21L 06012KT 020V100 RWY03L 05010KT 020V090 RWY21R 04013KT 340V080
LTAC 211320Z 06013KT 030V090 CAVOK 31/09 Q1015 NOSIG RMK RWY21L 06013KT 030V100 RWY03L 05013KT 020V080 RWY21R 06013KT 030V090

TAF LTAC 211640Z 2118/2218 05012KT CAVOK

 AIRPORT MAP

 RUNWAY INFORMATION
Runway 03L Runway length 12303 ft Runway width 148 ft
Runway elevation 3100 ft Runway displaced threshold 1148 ft Runway heading 36
Runway 21R Runway length 12303 ft Runway width 148 ft
Runway elevation 3123 ft Runway displaced threshold 0 ft Runway heading 216
Runway 03R Runway length 12303 ft Runway width 197 ft
Runway elevation 3097 ft Runway displaced threshold 0 ft Runway heading 35
Runway 21L Runway length 12303 ft Runway width 197 ft
Runway elevation 3125 ft Runway displaced threshold 0 ft Runway heading 215

 AIRPORT FREQUENCIES
Type APP Name APP Frequency 119.1 MHZ
Type ATIS Name ATIS Frequency 123.6 MHZ
Type GND Name GND Frequency 121.9 MHZ
Type TWR Name TWR Frequency 118.1 MHZ

 AIRPORT NEAR NAVIGATION AIDS
Type VOR-DME Name Cubuk Frequency 114300 KHZ

-